Time;durP1;ratioP1;P1;durP2;ratioP2;P2;SDS_P1;SDS_P2;PMS_P1;PMS_P2;Temp;Humidity;BMP_temperature;BMP_pressure;BME280_temperature;BME280_humidity;BME280_pressure;Samples;Min_cycle;Max_cycle;Signal;HPM_P1;HPM_P2
2023/04/27 00:00:26;;;;;;;2.80;2.60;;;6.00;99.90;;;;;;5069336;28;20184;-79
2023/04/27 00:02:52;;;;;;;3.33;2.33;;;6.00;99.90;;;;;;5053078;28;20179;-79
2023/04/27 00:05:18;;;;;;;2.93;2.30;;;5.90;1.00;;;;;;5052960;28;20201;-79
2023/04/27 00:07:44;;;;;;;4.17;2.60;;;5.80;1.00;;;;;;5051751;28;20274;-80
2023/04/27 00:10:11;;;;;;;2.93;2.30;;;5.90;99.90;;;;;;5052744;28;20180;-79
2023/04/27 00:12:36;;;;;;;4.40;2.60;;;5.90;99.90;;;;;;5051822;28;20179;-79
2023/04/27 00:15:03;;;;;;;3.70;2.70;;;5.90;99.90;;;;;;5051701;28;20266;-79
2023/04/27 00:17:28;;;;;;;3.60;2.57;;;5.80;1.00;;;;;;5051555;28;20177;-79
2023/04/27 00:19:54;;;;;;;3.97;2.40;;;5.80;99.90;;;;;;5052642;28;20287;-80
2023/04/27 00:22:20;;;;;;;3.00;2.37;;;5.80;1.00;;;;;;5069981;28;20660;-79
2023/04/27 00:24:45;;;;;;;2.90;2.50;;;5.70;99.90;;;;;;5051815;28;20203;-79
2023/04/27 00:27:12;;;;;;;4.93;2.60;;;5.70;99.90;;;;;;5052864;28;20178;-79
2023/04/27 00:29:41;;;;;;;4.43;2.60;;;5.70;99.90;;;;;;5064699;28;20273;-79
2023/04/27 00:32:10;;;;;;;7.93;3.07;;;5.70;99.90;;;;;;5060701;28;20544;-79
2023/04/27 00:34:36;;;;;;;3.80;2.60;;;5.70;99.90;;;;;;5064659;28;20194;-79
2023/04/27 00:37:02;;;;;;;3.17;2.30;;;5.70;1.00;;;;;;5056008;28;20179;-79
2023/04/27 00:39:27;;;;;;;4.30;3.00;;;5.80;99.90;;;;;;5052710;28;20179;-80
2023/04/27 00:41:53;;;;;;;3.50;2.37;;;5.90;1.00;;;;;;5052550;28;20173;-80
2023/04/27 00:44:23;;;;;;;3.33;2.50;;;5.80;1.00;;;;;;5065571;28;20694;-79
2023/04/27 00:46:49;;;;;;;3.13;2.40;;;5.80;1.00;;;;;;5072985;28;20186;-79
2023/04/27 00:49:15;;;;;;;4.63;2.83;;;5.70;1.00;;;;;;5071262;28;20180;-79
2023/04/27 00:51:41;;;;;;;3.87;2.47;;;5.70;99.90;;;;;;5071287;28;20183;-79
2023/04/27 00:54:06;;;;;;;5.80;3.00;;;5.70;1.00;;;;;;5072357;28;20309;-79
2023/04/27 00:56:32;;;;;;;5.30;2.90;;;5.70;99.90;;;;;;5071751;28;20191;-79
2023/04/27 00:58:57;;;;;;;3.33;2.80;;;5.70;99.90;;;;;;5073762;28;20176;-79
2023/04/27 01:01:23;;;;;;;2.70;2.50;;;5.70;99.90;;;;;;5076425;28;20179;-79
2023/04/27 01:03:48;;;;;;;4.00;2.87;;;5.60;1.00;;;;;;5076405;28;20229;-79
2023/04/27 01:06:14;;;;;;;3.20;2.37;;;5.60;1.00;;;;;;5074619;28;20170;-79
2023/04/27 01:08:40;;;;;;;3.73;2.70;;;5.50;99.90;;;;;;5074677;28;20199;-80
2023/04/27 01:11:05;;;;;;;3.67;2.47;;;5.50;99.90;;;;;;5076196;28;20178;-79
2023/04/27 01:13:31;;;;;;;3.73;2.67;;;5.50;1.00;;;;;;5076160;28;20238;-78
2023/04/27 01:15:56;;;;;;;2.83;2.57;;;5.50;1.00;;;;;;5075765;28;20214;-79
2023/04/27 01:18:22;;;;;;;4.50;3.10;;;5.50;1.00;;;;;;5076016;28;20174;-79
2023/04/27 01:20:47;;;;;;;3.43;2.70;;;5.60;79.40;;;;;;5074856;28;20175;-79
2023/04/27 01:23:14;;;;;;;3.90;2.60;;;5.40;99.90;;;;;;5074259;28;20186;-79
2023/04/27 01:25:40;;;;;;;3.03;2.67;;;5.50;1.00;;;;;;5063324;28;20203;-79
2023/04/27 01:28:05;;;;;;;3.00;2.60;;;5.50;1.00;;;;;;5054458;28;20178;-79
2023/04/27 01:30:31;;;;;;;6.53;3.20;;;5.50;99.90;;;;;;5055417;28;20278;-80
2023/04/27 01:32:56;;;;;;;4.43;2.90;;;5.60;99.90;;;;;;5055685;28;20172;-79
2023/04/27 01:35:22;;;;;;;5.30;3.37;;;5.60;99.90;;;;;;5055578;28;20204;-79
2023/04/27 01:37:47;;;;;;;5.87;3.03;;;5.50;1.00;;;;;;5054289;28;20261;-79
2023/04/27 01:40:13;;;;;;;4.93;2.90;;;5.40;1.00;;;;;;5055369;28;20207;-79
2023/04/27 01:42:39;;;;;;;5.23;2.70;;;5.50;99.90;;;;;;5055801;28;20174;-80
2023/04/27 01:45:06;;;;;;;4.37;2.80;;;5.50;1.00;;;;;;5053912;28;20291;-79
2023/04/27 01:47:31;;;;;;;3.70;2.50;;;5.50;99.90;;;;;;5055385;28;20178;-80
2023/04/27 01:49:57;;;;;;;3.37;2.73;;;5.60;1.00;;;;;;5053734;28;20174;-79
2023/04/27 01:52:22;;;;;;;4.97;3.03;;;5.60;1.00;;;;;;5054375;28;20178;-79
2023/04/27 01:54:48;;;;;;;4.47;2.80;;;5.40;1.00;;;;;;5053993;28;20243;-79
2023/04/27 01:57:14;;;;;;;4.80;3.00;;;5.40;99.90;;;;;;5055361;28;20542;-79
2023/04/27 01:59:39;;;;;;;3.43;2.80;;;5.40;1.00;;;;;;5053776;28;20175;-79
2023/04/27 02:02:05;;;;;;;3.67;2.70;;;5.50;99.90;;;;;;5055182;28;20428;-79
2023/04/27 02:04:30;;;;;;;4.13;2.90;;;5.50;1.00;;;;;;5054816;28;20873;-79
2023/04/27 02:06:56;;;;;;;6.13;3.13;;;5.50;99.90;;;;;;5054081;28;20176;-79
2023/04/27 02:09:22;;;;;;;5.10;3.50;;;5.50;1.00;;;;;;5052833;28;20234;-79
2023/04/27 02:11:47;;;;;;;6.30;3.20;;;5.40;1.00;;;;;;5054558;28;20180;-79
2023/04/27 02:14:13;;;;;;;4.23;2.90;;;5.40;1.00;;;;;;5053594;28;20218;-79
2023/04/27 02:16:38;;;;;;;3.77;2.90;;;5.40;99.90;;;;;;5054836;28;20258;-79
2023/04/27 02:19:04;;;;;;;5.27;3.00;;;5.30;1.00;;;;;;5054647;28;20180;-79
2023/04/27 02:21:29;;;;;;;4.33;3.10;;;5.30;1.00;;;;;;5053311;28;20225;-79
2023/04/27 02:23:55;;;;;;;4.77;3.07;;;5.30;1.00;;;;;;5054514;28;20230;-79
2023/04/27 02:26:22;;;;;;;4.67;3.13;;;5.30;1.00;;;;;;5054623;28;20173;-79
2023/04/27 02:28:48;;;;;;;4.37;2.87;;;5.40;1.00;;;;;;5053780;28;20581;-79
2023/04/27 02:31:15;;;;;;;5.20;3.07;;;5.30;1.00;;;;;;5053301;28;20213;-79
2023/04/27 02:33:41;;;;;;;4.80;3.20;;;5.40;99.90;;;;;;5053416;28;20170;-79
2023/04/27 02:36:07;;;;;;;5.67;2.87;;;5.50;99.90;;;;;;5054832;28;20227;-80
2023/04/27 02:38:33;;;;;;;5.33;2.80;;;5.60;99.90;;;;;;5054628;28;20171;-79
2023/04/27 02:40:59;;;;;;;4.33;3.00;;;5.60;1.00;;;;;;5053218;28;20265;-79
2023/04/27 02:43:24;;;;;;;4.57;3.10;;;5.60;99.90;;;;;;5053254;28;20172;-79
2023/04/27 02:45:50;;;;;;;7.23;3.30;;;5.50;99.90;;;;;;5054295;28;20223;-79
2023/04/27 02:48:15;;;;;;;4.13;3.03;;;5.50;99.90;;;;;;5054634;28;20718;-79
2023/04/27 02:50:42;;;;;;;4.30;3.20;;;5.60;1.00;;;;;;5052855;28;20214;-79
2023/04/27 02:53:08;;;;;;;5.40;2.90;;;5.40;99.90;;;;;;5054241;28;20202;-79
2023/04/27 02:55:34;;;;;;;4.63;3.10;;;5.40;99.90;;;;;;5053932;28;20662;-79
2023/04/27 02:58:00;;;;;;;4.70;3.27;;;5.30;1.00;;;;;;5052830;28;20715;-79
2023/04/27 03:00:25;;;;;;;4.30;2.80;;;5.40;1.00;;;;;;5053907;28;20537;-79
2023/04/27 03:02:51;;;;;;;4.00;2.93;;;5.30;1.00;;;;;;5053725;28;20269;-79
2023/04/27 03:05:17;;;;;;;4.30;2.90;;;5.30;1.00;;;;;;5053918;28;20189;-79
2023/04/27 03:07:42;;;;;;;6.47;2.90;;;5.20;1.00;;;;;;5052535;28;20586;-79
2023/04/27 03:10:08;;;;;;;4.43;3.30;;;5.10;99.90;;;;;;5052212;28;20204;-79
2023/04/27 03:12:34;;;;;;;4.83;3.10;;;5.10;1.00;;;;;;5053861;28;20177;-79
2023/04/27 03:15:00;;;;;;;6.77;3.50;;;5.10;99.90;;;;;;5053505;28;20201;-79
2023/04/27 03:17:26;;;;;;;4.37;3.30;;;5.20;99.90;;;;;;5052135;28;20169;-79
2023/04/27 03:19:51;;;;;;;5.87;3.27;;;5.20;99.90;;;;;;5051933;28;20202;-80
2023/04/27 03:22:17;;;;;;;5.53;3.10;;;5.20;99.90;;;;;;5051944;28;20202;-79
2023/04/27 03:24:42;;;;;;;5.80;3.63;;;5.20;1.00;;;;;;5053781;28;20194;-79
2023/04/27 03:27:08;;;;;;;6.03;3.37;;;5.20;1.00;;;;;;5052231;28;20172;-79
2023/04/27 03:29:34;;;;;;;5.37;3.50;;;5.10;1.00;;;;;;5052458;28;20177;-79
2023/04/27 03:31:59;;;;;;;5.10;3.57;;;5.30;99.90;;;;;;5052215;28;20209;-79
2023/04/27 03:34:25;;;;;;;6.50;3.17;;;5.30;1.00;;;;;;5051812;28;20199;-79
2023/04/27 03:36:50;;;;;;;7.07;3.43;;;5.30;31.80;;;;;;5052221;28;20242;-79
2023/04/27 03:39:16;;;;;;;5.57;3.30;;;5.30;99.90;;;;;;5052347;28;20205;-79
2023/04/27 03:41:42;;;;;;;4.93;3.20;;;5.10;1.00;;;;;;5053685;28;20557;-79
2023/04/27 03:44:07;;;;;;;5.30;3.53;;;5.10;1.00;;;;;;5053194;28;20224;-79
2023/04/27 03:46:33;;;;;;;7.37;3.60;;;5.20;1.00;;;;;;5053259;28;20223;-79
2023/04/27 03:48:58;;;;;;;4.40;3.23;;;5.10;99.90;;;;;;5051856;28;20177;-79
2023/04/27 03:51:24;;;;;;;5.80;3.80;;;5.20;1.00;;;;;;5053232;28;20177;-79
2023/04/27 03:53:50;;;;;;;4.93;3.07;;;5.00;1.00;;;;;;5051782;28;20360;-79
2023/04/27 03:56:15;;;;;;;4.67;3.20;;;4.90;99.90;;;;;;5053250;28;20180;-79
2023/04/27 03:58:41;;;;;;;5.53;3.80;;;4.90;99.90;;;;;;5051776;28;20214;-79
2023/04/27 04:01:09;;;;;;;4.07;3.20;;;5.00;34.40;;;;;;5051601;28;20190;-79
2023/04/27 04:03:35;;;;;;;5.10;3.63;;;5.00;1.00;;;;;;5051636;28;20197;-79
2023/04/27 04:06:02;;;;;;;4.83;3.50;;;5.10;1.00;;;;;;5051658;28;20532;-79
2023/04/27 04:08:28;;;;;;;5.33;3.80;;;5.10;90.20;;;;;;5060995;28;20194;-79
2023/04/27 04:10:55;;;;;;;6.63;4.30;;;5.10;99.90;;;;;;5072493;28;20174;-79
2023/04/27 04:13:21;;;;;;;4.17;3.20;;;5.10;99.90;;;;;;5054681;28;20175;-79
2023/04/27 04:15:46;;;;;;;7.20;3.47;;;5.10;1.00;;;;;;5051624;28;20720;-79
2023/04/27 04:18:12;;;;;;;5.17;3.60;;;5.00;1.00;;;;;;5054871;28;20184;-79
2023/04/27 04:20:37;;;;;;;5.23;3.27;;;5.00;99.90;;;;;;5067789;28;20170;-79
2023/04/27 04:23:03;;;;;;;4.33;3.43;;;5.00;1.00;;;;;;5062500;28;20179;-79
2023/04/27 04:25:29;;;;;;;5.53;3.00;;;5.10;1.00;;;;;;5063291;28;20306;-79
2023/04/27 04:27:54;;;;;;;4.00;3.23;;;5.00;99.90;;;;;;5071519;28;20268;-79
2023/04/27 04:30:22;;;;;;;4.53;3.10;;;5.00;99.90;;;;;;5072597;28;20169;-79
2023/04/27 04:32:47;;;;;;;5.87;3.20;;;5.00;30.10;;;;;;5073264;28;20182;-79
2023/04/27 04:35:13;;;;;;;4.60;3.00;;;5.00;99.90;;;;;;5076769;28;20205;-79
2023/04/27 04:37:38;;;;;;;3.83;2.90;;;4.90;99.90;;;;;;5075709;28;20253;-79
2023/04/27 04:40:09;;;;;;;4.47;3.00;;;4.90;1.00;;;;;;5076687;28;20170;-79
2023/04/27 04:42:38;;;;;;;5.43;2.87;;;4.90;1.00;;;;;;5076693;28;20212;-79
2023/04/27 04:45:04;;;;;;;7.77;2.97;;;4.90;99.90;;;;;;5075248;28;20204;-79
2023/04/27 04:47:33;;;;;;;4.10;3.00;;;5.00;1.00;;;;;;5075248;28;20552;-79
2023/04/27 04:49:58;;;;;;;3.53;2.63;;;5.00;1.00;;;;;;5075260;28;20234;-80
2023/04/27 04:52:24;;;;;;;3.23;2.93;;;5.10;99.90;;;;;;5076284;28;20169;-79
2023/04/27 04:54:52;;;;;;;3.57;2.87;;;5.20;33.10;;;;;;5136574;22;20213;-81
2023/04/27 04:57:18;;;;;;;5.10;2.87;;;5.20;1.00;;;;;;5082247;28;20178;-81
2023/04/27 04:59:44;;;;;;;3.83;2.90;;;5.10;99.90;;;;;;5081423;28;20177;-80
2023/04/27 05:02:09;;;;;;;5.20;2.87;;;5.20;1.00;;;;;;5076704;28;20176;-80
2023/04/27 05:04:35;;;;;;;4.17;2.73;;;5.20;1.00;;;;;;5077177;28;20203;-80
2023/04/27 05:07:00;;;;;;;4.00;3.20;;;5.30;99.90;;;;;;5076551;28;20240;-79
2023/04/27 05:09:26;;;;;;;7.27;3.23;;;5.30;1.00;;;;;;5077537;28;20183;-79
2023/04/27 05:11:52;;;;;;;4.77;3.10;;;5.20;99.90;;;;;;5078291;28;20174;-79
2023/04/27 05:14:17;;;;;;;5.07;2.80;;;5.30;1.00;;;;;;5075200;28;20224;-77
2023/04/27 05:16:43;;;;;;;4.17;3.10;;;5.40;99.90;;;;;;5075228;28;20265;-77
2023/04/27 05:19:08;;;;;;;5.90;3.37;;;5.50;1.00;;;;;;5073850;28;20173;-77
2023/04/27 05:21:34;;;;;;;4.43;3.33;;;5.60;99.90;;;;;;5074912;28;20177;-78
2023/04/27 05:24:00;;;;;;;3.33;2.50;;;5.60;99.90;;;;;;5075295;28;20178;-78
2023/04/27 05:26:25;;;;;;;5.77;3.80;;;5.70;1.00;;;;;;5095446;28;20175;-79
2023/04/27 05:28:51;;;;;;;5.50;2.90;;;6.30;99.90;;;;;;5078928;28;20252;-79
2023/04/27 05:31:16;;;;;;;6.70;3.50;;;6.70;1.00;;;;;;5080116;28;20171;-79
2023/04/27 05:33:42;;;;;;;5.00;3.30;;;7.20;1.00;;;;;;5081636;28;20219;-77
2023/04/27 05:36:08;;;;;;;6.40;3.60;;;7.40;1.00;;;;;;5082663;28;20211;-81
2023/04/27 05:38:35;;;;;;;4.13;3.30;;;7.60;99.90;;;;;;5097563;28;20169;-81
2023/04/27 05:41:00;;;;;;;5.07;3.40;;;7.50;1.00;;;;;;5093007;28;20179;-79
2023/04/27 05:43:26;;;;;;;5.03;3.60;;;7.20;1.00;;;;;;5097531;28;20172;-81
2023/04/27 05:45:52;;;;;;;5.60;3.90;;;7.00;99.90;;;;;;5100244;28;20691;-80
2023/04/27 05:48:18;;;;;;;7.73;4.10;;;6.70;65.90;;;;;;5103547;28;20172;-80
2023/04/27 05:50:44;;;;;;;6.00;4.03;;;6.50;99.90;;;;;;5100949;28;20182;-80
2023/04/27 05:53:10;;;;;;;5.97;3.90;;;6.40;1.00;;;;;;5104031;28;20233;-80
2023/04/27 05:55:36;;;;;;;5.87;4.20;;;6.40;99.90;;;;;;5102213;28;20222;-80
2023/04/27 05:58:02;;;;;;;6.50;4.20;;;6.40;1.00;;;;;;5104273;28;20176;-80
2023/04/27 06:00:28;;;;;;;3.93;3.47;;;6.40;1.00;;;;;;5103655;28;20229;-80
2023/04/27 06:02:53;;;;;;;5.10;3.60;;;6.50;99.90;;;;;;5104773;28;20221;-82
2023/04/27 06:05:20;;;;;;;7.03;4.07;;;6.50;99.90;;;;;;5104659;28;20203;-80
2023/04/27 06:07:46;;;;;;;5.23;3.80;;;6.50;99.90;;;;;;5103084;28;20294;-80
2023/04/27 06:10:12;;;;;;;4.63;3.60;;;6.50;99.90;;;;;;5104894;28;20197;-80
2023/04/27 06:12:37;;;;;;;6.43;3.77;;;6.50;1.00;;;;;;5097772;28;20211;-80
2023/04/27 06:15:07;;;;;;;8.20;4.30;;;6.50;99.90;;;;;;5094915;28;20207;-80
2023/04/27 06:17:39;;;;;;;5.20;3.53;;;6.60;1.00;;;;;;5105147;28;20171;-81
2023/04/27 06:20:08;;;;;;;7.50;3.67;;;6.60;1.00;;;;;;5107491;28;20581;-82
2023/04/27 06:22:35;;;;;;;4.97;3.73;;;6.70;99.90;;;;;;5108749;28;20182;-80
2023/04/27 06:25:02;;;;;;;5.23;3.57;;;6.70;99.90;;;;;;5102749;28;20207;-81
2023/04/27 06:27:27;;;;;;;6.30;3.40;;;6.70;99.90;;;;;;5099094;28;20214;-81
2023/04/27 06:29:53;;;;;;;6.30;3.43;;;6.80;27.90;;;;;;5107767;28;20183;-81
2023/04/27 06:32:19;;;;;;;6.97;3.90;;;6.80;1.00;;;;;;5108980;28;20179;-82
2023/04/27 06:34:44;;;;;;;5.60;3.70;;;6.80;1.00;;;;;;5110862;28;20211;-81
2023/04/27 06:37:10;;;;;;;5.03;3.33;;;6.80;1.00;;;;;;5110885;28;20179;-81
2023/04/27 06:39:35;;;;;;;6.00;4.03;;;6.70;1.00;;;;;;5110399;28;20171;-78
2023/04/27 06:42:03;;;;;;;5.13;3.80;;;6.70;1.00;;;;;;5112659;28;20256;-82
2023/04/27 06:44:28;;;;;;;6.47;3.90;;;6.80;91.20;;;;;;5098734;28;20202;-80
2023/04/27 06:46:54;;;;;;;8.57;4.33;;;6.90;99.90;;;;;;5095969;28;20182;-80
2023/04/27 06:49:20;;;;;;;5.73;3.73;;;7.00;1.00;;;;;;5096133;28;20178;-81
2023/04/27 06:51:46;;;;;;;4.93;3.60;;;7.20;1.00;;;;;;5097086;28;20183;-81
2023/04/27 06:54:12;;;;;;;5.37;3.27;;;7.30;99.90;;;;;;5095379;28;20175;-81
2023/04/27 06:56:38;;;;;;;5.83;3.33;;;7.40;6.60;;;;;;5095925;28;20196;-82
2023/04/27 06:59:03;;;;;;;5.93;3.27;;;7.30;99.90;;;;;;5095493;28;20577;-80
2023/04/27 07:01:29;;;;;;;5.27;2.90;;;7.40;48.30;;;;;;5095754;28;20172;-80
2023/04/27 07:03:56;;;;;;;4.50;3.33;;;7.40;1.00;;;;;;5095109;28;20187;-80
2023/04/27 07:06:21;;;;;;;5.47;3.50;;;7.60;54.80;;;;;;5095714;28;20203;-80
2023/04/27 07:08:47;;;;;;;5.57;2.90;;;7.60;99.90;;;;;;5097529;28;20179;-80
2023/04/27 07:11:13;;;;;;;4.80;2.83;;;7.70;1.00;;;;;;5095473;28;20180;-81
2023/04/27 07:13:38;;;;;;;5.17;2.67;;;7.80;51.10;;;;;;5096805;28;20176;-82
2023/04/27 07:16:04;;;;;;;4.60;3.10;;;7.90;1.00;;;;;;5096257;28;20240;-80
2023/04/27 07:18:30;;;;;;;3.60;2.80;;;7.90;1.00;;;;;;5095853;28;20175;-81
2023/04/27 07:20:56;;;;;;;7.90;3.10;;;8.10;1.00;;;;;;5097507;28;20168;-80
2023/04/27 07:23:22;;;;;;;5.30;2.63;;;8.10;1.00;;;;;;5087442;28;20173;-81
2023/04/27 07:25:49;;;;;;;4.47;2.60;;;8.30;1.00;;;;;;5089273;28;20282;-81
2023/04/27 07:28:15;;;;;;;4.50;2.33;;;8.40;93.30;;;;;;5094866;28;20177;-80
2023/04/27 07:30:41;;;;;;;5.40;2.90;;;8.50;22.80;;;;;;5096767;28;20306;-81
2023/04/27 07:33:08;;;;;;;4.70;2.70;;;8.70;99.90;;;;;;5095462;28;20173;-80
2023/04/27 07:35:34;;;;;;;4.17;2.43;;;8.80;1.00;;;;;;5098452;28;20200;-81
2023/04/27 07:38:03;;;;;;;4.27;2.50;;;8.80;1.00;;;;;;5101278;28;20171;-81
2023/04/27 07:40:29;;;;;;;5.00;2.83;;;8.80;1.00;;;;;;5103419;28;20598;-81
2023/04/27 07:42:55;;;;;;;3.40;2.40;;;9.00;1.00;;;;;;5101756;28;20173;-81
2023/04/27 07:45:21;;;;;;;6.93;3.20;;;9.00;1.00;;;;;;5103716;28;20214;-81
2023/04/27 07:47:47;;;;;;;4.13;2.63;;;9.10;1.00;;;;;;5101016;28;20268;-81
2023/04/27 07:50:15;;;;;;;59.37;10.33;;;9.20;1.00;;;;;;5103385;28;20176;-81
2023/04/27 07:52:40;;;;;;;3.90;2.33;;;9.40;1.00;;;;;;5101064;28;20173;-81
2023/04/27 07:55:07;;;;;;;4.70;2.50;;;9.40;1.00;;;;;;5098709;28;20259;-83
2023/04/27 07:57:32;;;;;;;3.63;2.60;;;9.50;1.00;;;;;;5099133;28;20191;-83
2023/04/27 07:59:58;;;;;;;5.43;2.77;;;9.70;1.00;;;;;;5096792;28;20186;-81
2023/04/27 08:02:29;;;;;;;7.37;2.57;;;9.90;1.00;;;;;;5097101;28;20168;-81
2023/04/27 08:04:54;;;;;;;4.17;2.63;;;10.00;1.00;;;;;;5098623;28;20191;-81
2023/04/27 08:07:20;;;;;;;6.30;2.63;;;10.00;99.90;;;;;;5097840;28;20179;-81
2023/04/27 08:09:45;;;;;;;4.87;2.70;;;10.20;99.90;;;;;;5097717;28;20171;-80
2023/04/27 08:12:11;;;;;;;3.30;2.60;;;10.50;99.90;;;;;;5097373;28;20179;-81
2023/04/27 08:14:36;;;;;;;70.10;11.47;;;10.70;99.90;;;;;;5097997;28;20252;-80
2023/04/27 08:17:02;;;;;;;4.13;2.40;;;10.90;99.90;;;;;;5098034;28;20185;-81
2023/04/27 08:19:27;;;;;;;6.60;2.20;;;10.90;99.90;;;;;;5100804;28;20188;-81
2023/04/27 08:21:53;;;;;;;7.27;2.97;;;10.80;99.90;;;;;;5098982;28;20239;-83
2023/04/27 08:24:20;;;;;;;3.27;2.40;;;10.80;99.90;;;;;;5100758;28;20187;-81
2023/04/27 08:26:45;;;;;;;3.53;2.27;;;10.90;99.90;;;;;;5101043;28;20176;-80
2023/04/27 08:29:11;;;;;;;3.83;2.50;;;10.90;90.70;;;;;;5098723;28;20172;-81
2023/04/27 08:31:36;;;;;;;3.63;2.27;;;11.00;26.00;;;;;;5102161;28;20217;-81
2023/04/27 08:34:02;;;;;;;3.00;2.40;;;11.10;60.00;;;;;;5103809;28;20191;-82
2023/04/27 08:36:28;;;;;;;3.77;2.43;;;11.00;54.50;;;;;;5103549;28;20210;-83
2023/04/27 08:38:53;;;;;;;4.00;2.53;;;11.00;12.50;;;;;;5101538;28;20200;-81
2023/04/27 08:41:20;;;;;;;4.87;2.30;;;11.00;8.90;;;;;;5100514;28;20169;-81
2023/04/27 08:43:48;;;;;;;4.43;2.47;;;11.00;32.30;;;;;;5103026;28;20173;-83
2023/04/27 08:46:20;;;;;;;4.50;2.50;;;11.20;63.80;;;;;;5100663;28;20245;-81
2023/04/27 08:48:49;;;;;;;4.70;2.30;;;11.50;36.20;;;;;;5100997;28;20187;-81
2023/04/27 08:51:16;;;;;;;4.93;2.60;;;11.60;6.90;;;;;;5087790;28;20181;-81
2023/04/27 08:53:51;;;;;;;5.80;2.30;;;11.80;24.90;;;;;;5092959;28;20177;-81
2023/04/27 08:56:18;;;;;;;4.27;2.70;;;12.10;6.20;;;;;;5092952;28;20204;-82
2023/04/27 08:58:44;;;;;;;3.80;2.30;;;12.20;1.00;;;;;;5085063;28;20256;-81
2023/04/27 09:01:10;;;;;;;4.57;2.80;;;12.30;1.00;;;;;;5082749;28;20177;-80
2023/04/27 09:03:36;;;;;;;5.07;2.30;;;12.20;1.00;;;;;;5085245;28;20177;-81
2023/04/27 09:06:05;;;;;;;6.67;2.90;;;12.30;1.00;;;;;;5083701;28;20188;-83
2023/04/27 09:08:48;;;;;;;3.93;2.70;;;12.00;1.00;;;;;;5086323;28;20598;-82
2023/04/27 09:11:15;;;;;;;4.10;2.47;;;11.70;1.00;;;;;;5084217;28;20169;-82
2023/04/27 09:13:44;;;;;;;5.00;2.83;;;11.90;1.00;;;;;;5084895;28;20192;-82
2023/04/27 09:16:11;;;;;;;6.20;2.90;;;12.20;1.00;;;;;;5086572;28;20615;-83
2023/04/27 09:18:41;;;;;;;6.23;2.90;;;12.50;13.70;;;;;;5086855;28;20170;-81
2023/04/27 09:21:06;;;;;;;6.33;3.10;;;12.70;1.00;;;;;;5090104;28;20169;-82
2023/04/27 09:23:32;;;;;;;4.47;3.00;;;12.80;1.00;;;;;;5092877;28;20170;-82
2023/04/27 09:26:04;;;;;;;6.50;3.00;;;12.80;1.00;;;;;;5091896;28;20676;-82
2023/04/27 09:28:31;;;;;;;5.03;3.10;;;13.00;1.00;;;;;;5092842;28;20270;-81
2023/04/27 09:31:01;;;;;;;3.80;3.10;;;12.90;1.00;;;;;;5094156;28;20248;-82
2023/04/27 09:33:29;;;;;;;4.40;2.97;;;12.50;1.00;;;;;;5105495;28;20160;-82
2023/04/27 09:35:57;;;;;;;4.43;3.10;;;12.50;1.00;;;;;;5088954;28;20232;-81
2023/04/27 09:38:22;;;;;;;5.53;2.90;;;12.70;1.00;;;;;;5079369;28;20173;-83
2023/04/27 09:40:50;;;;;;;5.87;3.10;;;13.00;1.00;;;;;;5077733;28;20214;-81
2023/04/27 09:43:16;;;;;;;4.30;3.13;;;13.10;1.00;;;;;;5077794;28;20173;-81
2023/04/27 09:45:42;;;;;;;3.83;3.00;;;13.30;1.00;;;;;;5077376;28;20196;-81
2023/04/27 09:48:08;;;;;;;4.23;3.00;;;13.40;1.00;;;;;;5078215;28;20560;-81
2023/04/27 09:50:41;;;;;;;3.43;2.70;;;13.50;1.00;;;;;;5079749;28;20173;-81
2023/04/27 09:53:09;;;;;;;5.87;3.20;;;13.70;1.00;;;;;;5077599;28;20180;-81
2023/04/27 09:55:47;;;;;;;5.73;3.03;;;13.70;1.00;;;;;;5078965;28;20235;-83
2023/04/27 09:58:28;;;;;;;4.33;3.00;;;13.70;1.00;;;;;;5077957;28;20284;-82
2023/04/27 10:01:12;;;;;;;3.83;3.30;;;14.00;1.00;;;;;;5079656;28;20168;-82
2023/04/27 10:04:03;;;;;;;6.50;3.47;;;14.30;1.00;;;;;;5079510;28;20204;-82
2023/04/27 10:06:44;;;;;;;6.27;3.70;;;14.50;1.00;;;;;;5079419;28;20181;-81
2023/04/27 10:09:10;;;;;;;5.77;3.73;;;14.70;1.00;;;;;;5082088;28;20180;-81
2023/04/27 10:11:42;;;;;;;4.93;3.60;;;14.70;1.00;;;;;;5078613;28;20212;-81
2023/04/27 10:14:09;;;;;;;5.43;3.40;;;14.60;1.00;;;;;;5077508;28;20181;-81
2023/04/27 10:17:09;;;;;;;4.70;3.50;;;14.50;1.00;;;;;;5077678;28;20275;-78
2023/04/27 10:19:36;;;;;;;6.93;3.60;;;14.50;1.00;;;;;;5056178;28;20188;-79
2023/04/27 10:22:02;;;;;;;3.90;3.37;;;14.80;1.00;;;;;;5075643;28;20176;-79
2023/04/27 10:24:36;;;;;;;6.57;4.00;;;15.20;1.00;;;;;;5074163;28;20189;-79
2023/04/27 10:27:04;;;;;;;6.50;3.33;;;15.20;1.00;;;;;;5076285;28;20180;-78
2023/04/27 10:29:38;;;;;;;9.20;4.10;;;15.20;1.00;;;;;;5078610;28;20307;-80
2023/04/27 10:32:08;;;;;;;8.47;4.30;;;15.50;1.00;;;;;;5074903;28;20177;-79
2023/04/27 10:34:37;;;;;;;4.67;3.47;;;15.60;1.00;;;;;;5077442;28;20281;-82
2023/04/27 10:37:10;;;;;;;5.77;3.63;;;15.60;1.00;;;;;;5077481;28;20180;-81
2023/04/27 10:39:41;;;;;;;6.40;4.00;;;15.80;1.00;;;;;;5077656;28;20643;-77
2023/04/27 10:42:08;;;;;;;7.30;3.87;;;16.20;1.00;;;;;;5077807;28;20183;-81
2023/04/27 10:44:35;;;;;;;6.57;3.67;;;16.20;1.00;;;;;;5077357;28;20227;-80
2023/04/27 10:47:12;;;;;;;6.27;3.80;;;16.40;1.00;;;;;;5078281;28;20183;-82
2023/04/27 10:49:38;;;;;;;4.67;3.90;;;16.50;1.00;;;;;;5080232;28;20172;-80
2023/04/27 10:52:05;;;;;;;4.60;3.80;;;16.30;1.00;;;;;;5081941;28;20239;-80
2023/04/27 10:57:09;;;;;;;4.90;3.73;;;16.30;1.00;;;;;;5091816;22;20245;-80
2023/04/27 10:59:53;;;;;;;7.57;4.10;;;16.40;1.00;;;;;;5072690;28;20175;-77
2023/04/27 11:02:27;;;;;;;5.60;4.00;;;16.60;1.00;;;;;;5072811;28;20216;-81
2023/04/27 11:04:54;;;;;;;8.07;4.10;;;16.20;1.00;;;;;;5072754;28;20254;-80
2023/04/27 11:07:25;;;;;;;5.17;3.50;;;16.30;1.00;;;;;;5072533;28;20173;-79
2023/04/27 11:09:51;;;;;;;3.93;3.30;;;16.70;1.00;;;;;;5072129;28;20169;-76
2023/04/27 11:12:17;;;;;;;5.80;3.60;;;16.70;1.00;;;;;;5073029;28;20181;-76
2023/04/27 11:14:43;;;;;;;4.27;3.00;;;16.70;1.00;;;;;;5072793;28;20671;-77
2023/04/27 11:17:08;;;;;;;5.50;3.50;;;16.60;1.00;;;;;;5071846;28;20177;-77
2023/04/27 11:19:46;;;;;;;4.63;3.00;;;16.40;1.00;;;;;;5072811;28;20173;-79
2023/04/27 11:22:15;;;;;;;5.23;3.20;;;16.40;1.00;;;;;;5072367;28;20255;-79
2023/04/27 11:24:51;;;;;;;7.80;3.70;;;16.40;1.00;;;;;;5073356;28;20179;-79
2023/04/27 11:27:17;;;;;;;8.40;4.07;;;16.70;1.00;;;;;;5071711;28;20242;-79
2023/04/27 11:29:43;;;;;;;6.73;4.20;;;16.90;1.00;;;;;;5072927;28;20177;-79
2023/04/27 11:32:22;;;;;;;6.00;4.60;;;16.70;1.00;;;;;;5072773;28;20177;-79
2023/04/27 11:34:52;;;;;;;7.97;3.70;;;16.80;1.00;;;;;;5076493;28;20196;-79
2023/04/27 11:37:23;;;;;;;6.13;4.03;;;17.00;1.00;;;;;;5083364;28;20175;-79
2023/04/27 11:39:49;;;;;;;4.93;3.80;;;17.30;1.00;;;;;;5086578;28;20165;-79
2023/04/27 11:42:20;;;;;;;5.17;3.60;;;17.80;1.00;;;;;;5091968;28;20171;-79
2023/04/27 11:45:00;;;;;;;5.50;3.67;;;17.80;1.00;;;;;;5090810;28;20254;-79
2023/04/27 11:47:28;;;;;;;6.10;3.63;;;17.90;1.00;;;;;;5081778;28;20181;-79
2023/04/27 11:49:56;;;;;;;6.80;3.83;;;18.20;1.00;;;;;;5071433;28;20271;-79
2023/04/27 11:52:26;;;;;;;6.00;3.67;;;18.10;1.00;;;;;;5071953;28;20177;-79
2023/04/27 11:54:55;;;;;;;5.70;3.87;;;18.30;1.00;;;;;;5072940;28;20236;-79
2023/04/27 11:57:29;;;;;;;5.37;3.53;;;18.60;1.00;;;;;;5073032;28;20256;-79
2023/04/27 11:59:59;;;;;;;5.33;3.70;;;19.00;1.00;;;;;;5072701;28;20176;-79
2023/04/27 12:02:25;;;;;;;4.87;3.83;;;19.30;1.00;;;;;;5072812;28;20181;-79
2023/04/27 12:04:51;;;;;;;6.07;4.07;;;19.20;1.00;;;;;;5071201;28;20262;-79
2023/04/27 12:07:17;;;;;;;6.63;4.23;;;18.70;1.00;;;;;;5072847;28;20173;-79
2023/04/27 12:09:43;;;;;;;4.77;3.53;;;17.80;1.00;;;;;;5067556;28;20169;-79
2023/04/27 12:12:10;;;;;;;7.27;3.60;;;17.40;1.00;;;;;;5081361;28;20263;-79
2023/04/27 12:14:36;;;;;;;4.87;3.73;;;17.20;1.00;;;;;;5050867;28;20197;-79
2023/04/27 12:17:02;;;;;;;6.00;3.80;;;17.50;1.00;;;;;;5050843;28;20694;-79
2023/04/27 12:19:28;;;;;;;4.17;3.17;;;17.60;1.00;;;;;;5052399;28;20173;-80
2023/04/27 12:21:54;;;;;;;7.67;4.03;;;18.10;1.00;;;;;;5051609;28;20181;-79
2023/04/27 12:24:20;;;;;;;5.07;3.53;;;18.20;1.00;;;;;;5051244;28;20182;-80
2023/04/27 12:26:47;;;;;;;7.20;3.80;;;18.60;1.00;;;;;;5055587;28;20204;-80
2023/04/27 12:29:12;;;;;;;4.27;3.33;;;18.90;1.00;;;;;;5071777;28;20180;-79
2023/04/27 12:31:38;;;;;;;5.77;3.73;;;19.00;1.00;;;;;;5073873;28;20165;-80
2023/04/27 12:34:04;;;;;;;7.47;4.17;;;18.80;1.00;;;;;;5072827;28;20261;-79
2023/04/27 12:36:30;;;;;;;4.77;4.27;;;18.30;1.00;;;;;;5073904;28;20211;-79
2023/04/27 12:39:20;;;;;;;6.37;3.93;;;17.50;1.00;;;;;;5073708;28;20545;-81
2023/04/27 12:41:47;;;;;;;5.87;3.93;;;17.40;1.00;;;;;;5073298;28;20173;-79
2023/04/27 12:44:13;;;;;;;5.13;4.00;;;17.50;1.00;;;;;;5074032;28;20184;-79
2023/04/27 12:46:40;;;;;;;6.43;3.53;;;17.80;1.00;;;;;;5072208;28;20193;-78
2023/04/27 12:49:07;;;;;;;5.27;3.67;;;18.30;1.00;;;;;;5071818;28;20256;-78
2023/04/27 12:51:33;;;;;;;6.63;3.80;;;18.30;1.00;;;;;;5071621;28;20204;-78
2023/04/27 12:53:59;;;;;;;6.80;3.33;;;18.80;1.00;;;;;;5072192;28;20177;-78
2023/04/27 12:56:25;;;;;;;6.70;3.97;;;18.80;1.00;;;;;;5074201;28;20209;-78
2023/04/27 12:58:51;;;;;;;4.90;3.70;;;19.00;1.00;;;;;;5074291;28;20176;-78
2023/04/27 13:01:18;;;;;;;5.57;3.60;;;18.80;1.00;;;;;;5073966;28;20220;-78